createdAt,value
2022-11-03T00:01:24.768Z,99521.69
2022-11-03T00:04:17.738Z,99533.75
2022-11-03T00:07:07.228Z,99533.94
2022-11-03T00:09:56.647Z,99534.63
2022-11-03T00:12:46.163Z,99536.50
2022-11-03T00:15:35.503Z,99544.84
2022-11-03T00:18:25.042Z,99550.84
2022-11-03T00:21:16.143Z,99541.19
2022-11-03T00:24:06.444Z,99551.44
2022-11-03T00:26:55.842Z,99544.13
2022-11-03T00:29:45.343Z,99554.38
2022-11-03T00:32:35.130Z,99551.19
2022-11-03T00:35:24.685Z,99549.94
2022-11-03T00:38:15.877Z,99543.19
2022-11-03T00:41:07.186Z,99547.84
2022-11-03T00:43:57.315Z,99534.41
2022-11-03T00:46:47.046Z,99554.03
2022-11-03T00:49:36.517Z,99547.69
2022-11-03T00:52:25.858Z,99541.44
2022-11-03T00:55:16.663Z,99538.00
2022-11-03T00:58:06.026Z,99532.03
2022-11-03T01:01:02.600Z,99530.25
2022-11-03T01:04:08.263Z,99530.25
2022-11-03T01:07:00.443Z,99524.06
2022-11-03T01:09:49.853Z,99530.91
2022-11-03T01:12:40.605Z,99523.22
2022-11-03T01:15:29.976Z,99522.41
2022-11-03T01:18:19.392Z,99530.13
2022-11-03T01:21:08.732Z,99521.47
2022-11-03T01:23:58.111Z,99524.66
2022-11-03T01:26:47.557Z,99501.75
2022-11-03T01:29:38.257Z,99494.19
2022-11-03T01:32:27.737Z,99495.38
2022-11-03T01:35:17.458Z,99490.72
2022-11-03T01:38:07.020Z,99502.69
2022-11-03T01:40:56.330Z,99487.59
2022-11-03T01:43:53.230Z,99488.97
2022-11-03T01:46:49.299Z,99485.00
2022-11-03T01:49:46.386Z,99485.94
2022-11-03T01:52:40.173Z,99483.94
2022-11-03T01:55:35.805Z,99479.53
2022-11-03T01:58:30.075Z,99484.31
2022-11-03T02:01:20.044Z,99478.88
2022-11-03T02:04:18.250Z,99483.34
2022-11-03T02:07:18.610Z,99488.19
2022-11-03T02:10:09.431Z,99478.88
2022-11-03T02:12:59.068Z,99485.47
2022-11-03T02:15:50.452Z,99474.88
2022-11-03T02:18:41.468Z,99475.91
2022-11-03T02:21:39.516Z,99460.50
2022-11-03T02:24:40.189Z,99464.50
2022-11-03T02:27:30.981Z,99459.31
2022-11-03T02:30:20.259Z,99447.25
2022-11-03T02:33:22.843Z,99451.59
2022-11-03T02:36:19.486Z,99447.59
2022-11-03T02:39:14.967Z,99454.38
2022-11-03T02:42:06.119Z,99453.59
2022-11-03T02:45:01.435Z,99445.13
2022-11-03T02:47:52.233Z,99449.59
2022-11-03T02:50:41.457Z,99454.16
2022-11-03T02:53:32.390Z,99446.00
2022-11-03T02:56:26.169Z,99453.19
2022-11-03T02:59:20.854Z,99447.47
2022-11-03T03:02:18.219Z,99460.13
2022-11-03T03:05:12.444Z,99458.38
2022-11-03T03:08:07.327Z,99460.50
2022-11-03T03:10:58.813Z,99462.44
2022-11-03T03:13:49.148Z,99448.50
2022-11-03T03:16:50.281Z,99454.06
2022-11-03T03:19:51.729Z,99434.19
2022-11-03T03:22:45.799Z,99447.28
2022-11-03T03:25:40.402Z,99445.81
2022-11-03T03:28:38.189Z,99428.78
2022-11-03T03:31:30.720Z,99427.19
2022-11-03T03:34:34.712Z,99424.66
2022-11-03T03:37:30.453Z,99418.81
2022-11-03T03:40:26.084Z,99409.69
2022-11-03T03:43:16.878Z,99402.91
2022-11-03T03:46:11.486Z,99399.38
2022-11-03T03:49:00.826Z,99399.72
2022-11-03T03:51:51.660Z,99400.38
2022-11-03T03:54:42.588Z,99388.94
2022-11-03T03:57:33.568Z,99400.66
2022-11-03T04:00:23.136Z,99393.59
2022-11-03T04:03:18.846Z,99384.75
2022-11-03T04:06:09.880Z,99378.56
2022-11-03T04:08:59.260Z,99376.19
2022-11-03T04:12:07.494Z,99373.31
2022-11-03T04:15:14.396Z,99365.53
2022-11-03T04:18:21.290Z,99371.56
2022-11-03T04:21:31.506Z,99363.28
2022-11-03T04:24:21.193Z,99366.47
2022-11-03T04:27:29.284Z,99362.88
2022-11-03T04:30:22.240Z,99363.88
2022-11-03T04:33:16.849Z,99357.19
2022-11-03T04:36:16.713Z,99359.69
2022-11-03T04:39:20.011Z,99363.19
2022-11-03T04:42:17.231Z,99367.06
2022-11-03T04:45:22.893Z,99385.28
2022-11-03T04:48:15.804Z,99375.72
2022-11-03T04:51:16.670Z,99379.09
2022-11-03T04:54:15.644Z,99388.75
2022-11-03T04:57:12.425Z,99389.22
2022-11-03T05:00:03.470Z,99371.41
2022-11-03T05:02:56.090Z,99399.50
2022-11-03T05:05:46.518Z,99395.88
2022-11-03T05:08:35.930Z,99392.00
2022-11-03T05:11:33.542Z,99390.22
2022-11-03T05:14:26.018Z,99398.06
2022-11-03T05:17:25.549Z,99395.19
2022-11-03T05:20:35.795Z,99379.50
2022-11-03T05:23:27.245Z,99386.69
2022-11-03T05:26:21.861Z,99387.16
2022-11-03T05:29:17.002Z,99385.88
2022-11-03T05:32:16.009Z,99384.78
2022-11-03T05:35:20.429Z,99381.22
2022-11-03T05:38:16.131Z,99381.22
2022-11-03T05:41:14.523Z,99380.31
2022-11-03T05:44:18.173Z,99367.47
2022-11-03T05:47:15.676Z,99371.00
2022-11-03T05:50:20.603Z,99368.72
2022-11-03T05:53:28.036Z,99374.84
2022-11-03T05:56:22.624Z,99363.34
2022-11-03T05:59:15.139Z,99356.31
2022-11-03T06:02:12.699Z,99358.09
2022-11-03T06:05:02.172Z,99345.91
2022-11-03T06:07:57.098Z,99344.84
2022-11-03T06:10:51.229Z,99336.41
2022-11-03T06:13:40.902Z,99341.84
2022-11-03T06:16:42.854Z,99332.63
2022-11-03T06:19:39.376Z,99327.16
2022-11-03T06:22:31.833Z,99338.41
2022-11-03T06:25:31.849Z,99329.44
2022-11-03T06:28:26.863Z,99326.69
2022-11-03T06:31:23.581Z,99329.78
2022-11-03T06:34:34.936Z,99318.53
2022-11-03T06:37:27.372Z,99326.78
2022-11-03T06:40:37.256Z,99331.22
2022-11-03T06:43:32.903Z,99321.91
2022-11-03T06:46:25.011Z,99327.38
2022-11-03T06:49:30.104Z,99328.13
2022-11-03T06:52:29.899Z,99333.69
2022-11-03T06:55:28.128Z,99331.50
2022-11-03T06:58:30.125Z,99343.34
2022-11-03T07:01:24.157Z,99334.03
2022-11-03T07:04:20.263Z,99326.06
2022-11-03T07:07:10.368Z,99331.16
2022-11-03T07:09:59.900Z,99323.19
2022-11-03T07:12:49.380Z,99318.09
2022-11-03T07:15:40.296Z,99314.34
2022-11-03T07:18:35.404Z,99326.91
2022-11-03T07:21:37.543Z,99308.78
2022-11-03T07:24:31.229Z,99305.44
2022-11-03T07:27:26.619Z,99305.34
2022-11-03T07:30:22.161Z,99301.13
2022-11-03T07:33:20.005Z,99297.16
2022-11-03T07:36:17.178Z,99294.44
2022-11-03T07:39:14.200Z,99301.25
2022-11-03T07:42:12.853Z,99293.88
2022-11-03T07:45:02.366Z,99293.22
2022-11-03T07:47:51.775Z,99286.19
2022-11-03T07:50:42.707Z,99287.56
2022-11-03T07:53:40.809Z,99277.13
2022-11-03T07:56:36.868Z,99280.16
2022-11-03T07:59:32.418Z,99286.91
2022-11-03T08:02:32.743Z,99280.84
2022-11-03T08:05:22.461Z,99285.88
2022-11-03T08:08:13.890Z,99298.59
2022-11-03T08:11:03.412Z,99293.94
2022-11-03T08:13:53.772Z,99293.59
2022-11-03T08:16:43.135Z,99296.13
2022-11-03T08:19:32.708Z,99288.41
2022-11-03T08:22:23.567Z,99289.09
2022-11-03T08:25:14.642Z,99281.03
2022-11-03T08:28:04.316Z,99280.94
2022-11-03T08:30:54.031Z,99273.91
2022-11-03T08:33:43.949Z,99269.41
2022-11-03T08:36:33.330Z,99269.75
2022-11-03T08:39:23.042Z,99273.06
2022-11-03T08:42:13.790Z,99265.34
2022-11-03T08:45:03.220Z,99259.75
2022-11-03T08:47:52.678Z,99266.81
2022-11-03T08:50:42.080Z,99254.44
2022-11-03T08:53:31.742Z,99258.44
2022-11-03T08:56:22.510Z,99267.78
2022-11-03T08:59:13.734Z,99256.19
2022-11-03T09:02:03.235Z,99261.44
2022-11-03T09:04:52.706Z,99256.91
2022-11-03T09:10:52.465Z,99262.50
2022-11-03T09:13:42.016Z,99263.31
2022-11-03T09:16:32.908Z,99263.97
2022-11-03T09:19:22.228Z,99260.47
2022-11-03T09:22:11.550Z,99253.28
2022-11-03T09:25:01.058Z,99244.50
2022-11-03T09:27:50.551Z,99246.22
2022-11-03T09:30:40.251Z,99247.31
2022-11-03T09:33:31.704Z,99238.47
2022-11-03T09:36:21.205Z,99235.81
2022-11-03T09:39:10.703Z,99222.88
2022-11-03T09:42:03.755Z,99242.22
2022-11-03T09:44:54.838Z,99244.69
2022-11-03T09:47:47.935Z,99239.78
2022-11-03T09:50:38.877Z,99238.41
2022-11-03T09:53:28.375Z,99243.59
2022-11-03T09:56:23.062Z,99231.09
2022-11-03T09:59:18.518Z,99236.97
2022-11-03T10:02:26.464Z,99236.97
2022-11-03T10:05:23.750Z,99243.22
2022-11-03T10:08:23.562Z,99238.81
2022-11-03T10:11:13.813Z,99242.00
2022-11-03T10:14:03.635Z,99248.81
2022-11-03T10:17:00.552Z,99254.38
2022-11-03T10:19:54.185Z,99258.44
2022-11-03T10:22:46.196Z,99257.06
2022-11-03T10:25:42.703Z,99252.38
2022-11-03T10:28:32.032Z,99249.13
2022-11-03T10:31:22.855Z,99255.38
2022-11-03T10:34:29.393Z,99247.03
2022-11-03T10:37:23.855Z,99241.16
2022-11-03T10:40:54.017Z,99233.53
2022-11-03T10:43:45.424Z,99235.66
2022-11-03T10:46:51.733Z,99234.34
2022-11-03T10:49:43.918Z,99233.03
2022-11-03T10:55:28.984Z,99229.84
2022-11-03T10:58:20.132Z,99227.13
2022-11-03T11:01:12.889Z,99216.16
2022-11-03T11:04:02.378Z,99213.78
2022-11-03T11:06:52.742Z,99208.50
2022-11-03T11:09:42.247Z,99193.69
2022-11-03T11:12:31.862Z,99189.19
2022-11-03T11:15:44.746Z,99194.59
2022-11-03T11:19:11.677Z,99186.75
2022-11-03T11:22:04.744Z,99192.88
2022-11-03T11:25:02.773Z,99194.38
2022-11-03T11:28:19.309Z,99198.88
2022-11-03T11:31:32.293Z,99196.13
2022-11-03T11:34:40.843Z,99200.53
2022-11-03T11:37:39.039Z,99193.16
2022-11-03T11:40:52.015Z,99185.03
2022-11-03T11:43:41.394Z,99186.94
2022-11-03T11:46:51.409Z,99185.41
2022-11-03T11:49:40.785Z,99177.28
2022-11-03T11:52:31.473Z,99185.72
2022-11-03T11:55:27.999Z,99174.88
2022-11-03T11:58:28.083Z,99182.09
2022-11-03T12:01:28.526Z,99165.31
2022-11-03T12:04:24.288Z,99156.94
2022-11-03T12:07:16.487Z,99151.38
2022-11-03T12:10:09.986Z,99150.94
2022-11-03T12:13:01.919Z,99153.41
2022-11-03T12:15:56.524Z,99152.63
2022-11-03T12:18:50.359Z,99153.31
2022-11-03T12:21:50.163Z,99145.22
2022-11-03T12:24:54.041Z,99154.38
2022-11-03T12:27:44.927Z,99151.34
2022-11-03T12:30:39.505Z,99153.09
2022-11-03T12:33:30.276Z,99152.81
2022-11-03T12:36:19.649Z,99140.34
2022-11-03T12:39:10.526Z,99140.88
2022-11-03T12:41:59.948Z,99141.88
2022-11-03T12:44:49.563Z,99139.78
2022-11-03T12:47:38.854Z,99136.53
2022-11-03T12:50:28.533Z,99131.34
2022-11-03T12:53:17.858Z,99127.31
2022-11-03T12:56:10.855Z,99122.16
2022-11-03T12:59:00.143Z,99128.81
2022-11-03T13:01:49.551Z,99123.63
2022-11-03T13:04:39.272Z,99110.47
2022-11-03T13:07:34.380Z,99124.69
2022-11-03T13:10:24.280Z,99118.78
2022-11-03T13:13:15.020Z,99119.25
2022-11-03T13:16:04.958Z,99112.22
2022-11-03T13:18:54.526Z,99111.16
2022-11-03T13:21:43.888Z,99109.06
2022-11-03T13:24:33.379Z,99111.53
2022-11-03T13:27:23.129Z,99113.66
2022-11-03T13:30:15.118Z,99110.97
2022-11-03T13:33:04.736Z,99107.34
2022-11-03T13:35:54.940Z,99101.34
2022-11-03T13:38:44.562Z,99101.72
2022-11-03T13:41:33.889Z,99099.28
2022-11-03T13:44:23.237Z,99111.09
2022-11-03T13:47:14.076Z,99093.28
2022-11-03T13:50:19.460Z,99105.31
2022-11-03T13:56:21.838Z,99096.47
2022-11-03T13:59:28.206Z,99093.63
2022-11-03T14:05:28.785Z,99089.97
2022-11-03T14:08:18.078Z,99091.88
2022-11-03T14:11:21.405Z,99095.31
2022-11-03T14:14:10.424Z,99090.47
2022-11-03T14:17:00.562Z,99095.56
2022-11-03T14:19:52.827Z,99090.00
2022-11-03T14:22:43.566Z,99084.88
2022-11-03T14:25:32.975Z,99072.19
2022-11-03T14:28:26.097Z,99085.97
2022-11-03T14:31:15.851Z,99080.44
2022-11-03T14:34:05.444Z,99083.56
2022-11-03T14:36:56.541Z,99072.09
2022-11-03T14:39:45.902Z,99064.72
2022-11-03T14:42:34.381Z,99065.06
2022-11-03T14:45:24.191Z,99048.84
2022-11-03T14:48:13.742Z,99057.63
2022-11-03T14:51:03.113Z,99052.88
2022-11-03T14:53:54.004Z,99052.94
2022-11-03T14:56:43.457Z,99061.97
2022-11-03T14:59:33.484Z,99053.28
2022-11-03T15:02:23.007Z,99054.09
2022-11-03T15:05:32.564Z,99067.75
2022-11-03T15:08:23.624Z,99061.88
2022-11-03T15:11:14.732Z,99075.09
2022-11-03T15:14:04.344Z,99072.31
2022-11-03T15:16:53.845Z,99075.06
2022-11-03T15:19:43.694Z,99081.31
2022-11-03T15:25:42.607Z,99078.09
2022-11-03T15:28:33.323Z,99070.22
2022-11-03T15:31:23.783Z,99076.09
2022-11-03T15:34:13.523Z,99073.34
2022-11-03T15:37:03.137Z,99075.63
2022-11-03T15:39:57.195Z,99082.13
2022-11-03T15:42:48.886Z,99089.00
2022-11-03T15:45:40.674Z,99098.66
2022-11-03T15:48:34.387Z,99093.88
2022-11-03T15:51:25.796Z,99096.22
2022-11-03T15:54:15.410Z,99105.16
2022-11-03T15:57:05.088Z,99114.94
2022-11-03T15:59:57.769Z,99123.50
2022-11-03T16:02:49.260Z,99124.50
2022-11-03T16:05:38.664Z,99139.31
2022-11-03T16:08:28.086Z,99137.22
2022-11-03T16:11:17.446Z,99141.72
2022-11-03T16:14:06.815Z,99150.34
2022-11-03T16:16:56.852Z,99157.28
2022-11-03T16:19:47.942Z,99151.22
2022-11-03T16:22:37.708Z,99161.00
2022-11-03T16:25:27.077Z,99170.75
2022-11-03T16:28:16.356Z,99169.88
2022-11-03T16:31:05.791Z,99172.25
2022-11-03T16:33:55.418Z,99175.78
2022-11-03T16:36:46.719Z,99177.38
2022-11-03T16:39:36.125Z,99181.63
2022-11-03T16:42:25.378Z,99187.41
2022-11-03T16:45:19.690Z,99194.00
2022-11-03T16:48:09.353Z,99217.44
2022-11-03T16:50:59.769Z,99216.22
2022-11-03T16:53:52.876Z,99225.59
2022-11-03T16:56:42.562Z,99220.00
2022-11-03T16:59:31.764Z,99226.22
2022-11-03T17:02:21.452Z,99223.47
2022-11-03T17:05:12.627Z,99229.22
2022-11-03T17:08:02.235Z,99241.84
2022-11-03T17:10:52.991Z,99231.88
2022-11-03T17:13:42.589Z,99255.91
2022-11-03T17:16:32.031Z,99250.75
2022-11-03T17:19:21.337Z,99261.28
2022-11-03T17:22:10.966Z,99272.22
2022-11-03T17:25:02.145Z,99276.13
2022-11-03T17:27:55.649Z,99288.66
2022-11-03T17:30:45.504Z,99289.81
2022-11-03T17:33:35.310Z,99302.38
2022-11-03T17:36:25.199Z,99319.41
2022-11-03T17:39:18.032Z,99325.84
2022-11-03T17:42:18.268Z,99327.16
2022-11-03T17:45:14.134Z,99327.34
2022-11-03T17:48:03.504Z,99332.25
2022-11-03T17:50:55.776Z,99332.88
2022-11-03T17:53:46.709Z,99338.00
2022-11-03T17:56:36.606Z,99345.78
2022-11-03T17:59:25.909Z,99355.81
2022-11-03T18:02:19.197Z,99347.44
2022-11-03T18:05:23.108Z,99364.44
2022-11-03T18:08:15.660Z,99372.53
2022-11-03T18:11:06.582Z,99382.13
2022-11-03T18:13:54.862Z,99380.06
2022-11-03T18:16:44.503Z,99395.47
2022-11-03T18:19:35.529Z,99400.59
2022-11-03T18:22:25.340Z,99409.16
2022-11-03T18:25:15.987Z,99417.00
2022-11-03T18:28:06.156Z,99433.88
2022-11-03T18:30:58.916Z,99443.13
2022-11-03T18:33:48.693Z,99452.34
2022-11-03T18:36:39.747Z,99463.28
2022-11-03T18:39:30.108Z,99472.28
2022-11-03T18:42:19.518Z,99487.88
2022-11-03T18:45:14.541Z,99486.97
2022-11-03T18:48:03.850Z,99496.78
2022-11-03T18:50:55.373Z,99499.28
2022-11-03T18:53:46.616Z,99501.69
2022-11-03T18:56:38.249Z,99516.38
2022-11-03T18:59:32.032Z,99528.91
2022-11-03T19:02:25.536Z,99530.28
2022-11-03T19:05:15.961Z,99542.69
2022-11-03T19:08:06.181Z,99556.34
2022-11-03T19:11:03.892Z,99558.03
2022-11-03T19:13:53.831Z,99563.84
2022-11-03T19:17:02.028Z,99566.34
2022-11-03T19:19:52.866Z,99570.91
2022-11-03T19:22:42.792Z,99579.84
2022-11-03T19:25:32.722Z,99597.03
2022-11-03T19:28:23.859Z,99591.94
2022-11-03T19:31:24.415Z,99601.72
2022-11-03T19:34:18.423Z,99592.00
2022-11-03T19:37:08.275Z,99611.59
2022-11-03T19:39:58.277Z,99616.94
2022-11-03T19:42:48.898Z,99621.47
2022-11-03T19:45:41.443Z,99625.22
2022-11-03T19:48:35.761Z,99634.75
2022-11-03T19:51:26.013Z,99640.09
2022-11-03T19:54:19.599Z,99653.59
2022-11-03T19:57:13.283Z,99653.94
2022-11-03T20:00:03.779Z,99662.00
2022-11-03T20:02:58.576Z,99673.13
2022-11-03T20:05:49.991Z,99682.28
2022-11-03T20:08:40.095Z,99687.16
2022-11-03T20:11:29.789Z,99706.63
2022-11-03T20:14:26.351Z,99705.19
2022-11-03T20:17:21.573Z,99712.94
2022-11-03T20:20:16.470Z,99713.56
2022-11-03T20:23:07.893Z,99722.41
2022-11-03T20:25:57.825Z,99735.25
2022-11-03T20:28:47.570Z,99733.03
2022-11-03T20:31:37.648Z,99745.22
2022-11-03T20:34:27.360Z,99752.75
2022-11-03T20:37:21.677Z,99765.13
2022-11-03T20:40:17.311Z,99760.31
2022-11-03T20:43:07.984Z,99770.78
2022-11-03T20:45:58.066Z,99779.59
2022-11-03T20:48:48.008Z,99793.91
2022-11-03T20:51:42.361Z,99800.34
2022-11-03T20:54:33.655Z,99807.59
2022-11-03T20:57:23.493Z,99819.94
2022-11-03T21:00:17.015Z,99833.09
2022-11-03T21:03:45.270Z,99839.22
2022-11-03T21:06:33.860Z,99858.47
2022-11-03T21:09:24.028Z,99867.66
2022-11-03T21:12:15.828Z,99873.59
2022-11-03T21:15:26.706Z,99875.81
2022-11-03T21:18:37.623Z,99887.22
2022-11-03T21:21:27.333Z,99901.00
2022-11-03T21:24:18.338Z,99912.91
2022-11-03T21:27:08.808Z,99922.69
2022-11-03T21:30:00.422Z,99932.00
2022-11-03T21:32:51.178Z,99935.81
2022-11-03T21:35:44.356Z,99946.25
2022-11-03T21:38:34.017Z,99955.53
2022-11-03T21:41:46.571Z,99968.84
2022-11-03T21:44:36.395Z,99975.88
2022-11-03T21:47:27.827Z,99997.53
2022-11-03T21:50:16.491Z,100008.25
2022-11-03T21:53:07.312Z,100013.69
2022-11-03T21:55:57.654Z,100032.75
2022-11-03T21:58:47.022Z,100039.97
2022-11-03T22:01:36.708Z,100052.44
2022-11-03T22:04:27.763Z,100055.50
2022-11-03T22:07:17.506Z,100065.22
2022-11-03T22:10:08.180Z,100069.88
2022-11-03T22:12:57.591Z,100084.09
2022-11-03T22:16:04.558Z,100090.50
2022-11-03T22:19:13.852Z,100086.78
2022-11-03T22:22:24.928Z,100100.84
2022-11-03T22:25:32.366Z,100106.59
2022-11-03T22:28:22.057Z,100124.84
2022-11-03T22:31:29.112Z,100138.59
2022-11-03T22:34:36.078Z,100137.00
2022-11-03T22:37:26.839Z,100145.47
2022-11-03T22:40:33.854Z,100146.09
2022-11-03T22:43:41.608Z,100158.00
2022-11-03T22:46:31.647Z,100161.03
2022-11-03T22:49:21.007Z,100170.66
2022-11-03T22:52:12.233Z,100177.81
2022-11-03T22:55:02.207Z,100176.19
2022-11-03T22:57:51.896Z,100186.09
2022-11-03T23:00:41.878Z,100187.00
2022-11-03T23:03:33.761Z,100192.59
2022-11-03T23:06:25.430Z,100201.25
2022-11-03T23:09:14.806Z,100198.59
2022-11-03T23:12:06.477Z,100224.50
2022-11-03T23:15:13.353Z,100234.38
2022-11-03T23:18:20.784Z,100235.78
2022-11-03T23:21:10.371Z,100232.88
2022-11-03T23:24:17.891Z,100230.44
2022-11-03T23:27:10.318Z,100233.47
2022-11-03T23:29:59.816Z,100247.38
2022-11-03T23:32:49.175Z,100251.53
2022-11-03T23:35:40.310Z,100247.78
2022-11-03T23:38:32.097Z,100253.03
2022-11-03T23:41:21.729Z,100262.00
2022-11-03T23:44:13.530Z,100245.69
2022-11-03T23:47:26.083Z,100249.41
2022-11-03T23:50:15.577Z,100250.63
2022-11-03T23:53:05.051Z,100263.63
2022-11-03T23:56:08.293Z,100264.50
2022-11-03T23:58:57.774Z,100263.69
